Time;durP1;ratioP1;P1;durP2;ratioP2;P2;SDS_P1;SDS_P2;PMS_P1;PMS_P2;Temp;Humidity;BMP_temperature;BMP_pressure;BME280_temperature;BME280_humidity;BME280_pressure;Samples;Min_cycle;Max_cycle;Signal;HPM_P1;HPM_P2
2022/07/14 00:00:59;;;;;;;1.33;0.68;;;23.70;51.30;;;;;;5053842;28;20371;-61
2022/07/14 00:03:25;;;;;;;0.85;0.50;;;23.60;51.30;;;;;;5055968;28;20037;-63
2022/07/14 00:05:51;;;;;;;2.60;0.57;;;23.60;51.80;;;;;;5053113;28;20065;-63
2022/07/14 00:08:17;;;;;;;0.60;0.50;;;23.60;51.30;;;;;;5053913;28;20105;-64
2022/07/14 00:10:42;;;;;;;1.27;0.52;;;23.50;51.60;;;;;;5050389;28;20098;-64
2022/07/14 00:13:08;;;;;;;2.58;0.50;;;23.40;51.60;;;;;;5057289;28;20049;-62
2022/07/14 00:15:33;;;;;;;0.70;0.60;;;23.40;51.60;;;;;;5051640;28;20033;-62
2022/07/14 00:18:00;;;;;;;1.75;0.60;;;23.30;51.80;;;;;;5055147;28;20506;-65
2022/07/14 00:20:26;;;;;;;0.43;0.43;;;23.30;51.90;;;;;;5050469;28;20183;-63
2022/07/14 00:22:52;;;;;;;1.05;0.65;;;23.30;52.00;;;;;;5056039;28;20036;-63
2022/07/14 00:25:17;;;;;;;2.38;0.63;;;23.20;51.90;;;;;;5055528;28;20033;-62
2022/07/14 00:27:43;;;;;;;0.60;0.60;;;23.20;52.00;;;;;;5052722;28;20105;-63
2022/07/14 00:30:10;;;;;;;1.50;0.60;;;23.20;51.90;;;;;;5053011;28;20041;-63
2022/07/14 00:32:35;;;;;;;0.75;0.40;;;23.20;52.00;;;;;;5052339;28;20492;-63
2022/07/14 00:35:01;;;;;;;1.02;0.55;;;23.20;52.30;;;;;;5055806;28;20111;-64
2022/07/14 00:37:27;;;;;;;2.35;0.73;;;23.20;52.20;;;;;;5051235;28;20051;-64
2022/07/14 00:39:55;;;;;;;2.70;0.70;;;23.20;52.40;;;;;;5056116;28;20033;-61
2022/07/14 00:42:39;;;;;;;2.05;0.80;;;23.20;52.60;;;;;;5051977;28;20025;-63
2022/07/14 00:45:07;;;;;;;2.25;0.70;;;23.10;53.00;;;;;;5053413;28;20028;-64
2022/07/14 00:47:33;;;;;;;1.63;0.68;;;23.10;52.80;;;;;;5068119;28;20045;-62
2022/07/14 00:49:59;;;;;;;0.60;0.60;;;23.10;52.90;;;;;;5053203;28;20029;-62
2022/07/14 00:52:27;;;;;;;1.30;0.80;;;23.00;53.10;;;;;;5051536;28;20120;-63
2022/07/14 00:54:53;;;;;;;0.95;0.80;;;23.00;53.30;;;;;;5054103;28;20033;-59
2022/07/14 00:57:19;;;;;;;1.48;0.80;;;23.00;53.20;;;;;;5052993;28;20029;-62
2022/07/14 00:59:46;;;;;;;3.67;0.70;;;23.00;53.40;;;;;;5054813;28;20036;-62
2022/07/14 01:02:12;;;;;;;2.47;0.93;;;22.90;54.10;;;;;;5060128;28;20033;-62
2022/07/14 01:04:37;;;;;;;3.03;1.10;;;22.90;53.50;;;;;;5054767;28;20030;-63
2022/07/14 01:07:03;;;;;;;2.17;0.88;;;22.90;53.50;;;;;;5050703;28;20458;-60
2022/07/14 01:09:29;;;;;;;1.67;0.90;;;22.90;53.80;;;;;;5051970;28;20020;-63
2022/07/14 01:11:55;;;;;;;1.10;0.77;;;22.80;53.90;;;;;;5051219;28;20051;-63
2022/07/14 01:14:20;;;;;;;0.60;0.60;;;22.80;54.00;;;;;;5053401;28;20457;-63
2022/07/14 01:16:46;;;;;;;0.88;0.70;;;22.80;54.00;;;;;;5052516;28;20033;-63
2022/07/14 01:19:12;;;;;;;1.65;0.90;;;22.70;54.10;;;;;;5054018;28;20147;-63
2022/07/14 01:21:37;;;;;;;1.02;0.93;;;22.70;54.00;;;;;;5054281;28;20656;-62
2022/07/14 01:24:03;;;;;;;0.90;0.90;;;22.70;54.10;;;;;;5051375;28;20496;-65
2022/07/14 01:26:29;;;;;;;1.35;0.80;;;22.60;54.40;;;;;;5051828;28;20124;-63
2022/07/14 01:28:54;;;;;;;1.80;0.73;;;22.60;54.40;;;;;;5050957;28;20033;-64
2022/07/14 01:31:20;;;;;;;1.73;0.77;;;22.50;54.50;;;;;;5051402;28;20059;-64
2022/07/14 01:33:45;;;;;;;1.15;0.65;;;22.60;54.60;;;;;;5051994;28;20033;-63
2022/07/14 01:36:11;;;;;;;1.67;0.77;;;22.50;54.50;;;;;;5053030;28;20037;-62
2022/07/14 01:38:37;;;;;;;2.50;0.70;;;22.50;54.40;;;;;;5051405;28;20048;-64
2022/07/14 01:41:02;;;;;;;1.05;0.80;;;22.40;54.60;;;;;;5052520;28;20068;-62
2022/07/14 01:43:29;;;;;;;0.85;0.60;;;22.50;54.70;;;;;;5051979;28;20033;-63
2022/07/14 01:45:55;;;;;;;3.38;0.82;;;22.50;54.30;;;;;;5052332;28;21580;-63
2022/07/14 01:48:20;;;;;;;2.35;0.82;;;22.50;54.20;;;;;;5052756;28;20279;-63
2022/07/14 01:50:46;;;;;;;1.63;0.80;;;22.40;54.50;;;;;;5053283;28;20029;-62
2022/07/14 01:53:13;;;;;;;0.73;0.70;;;22.40;54.70;;;;;;5051544;28;20052;-62
2022/07/14 01:55:38;;;;;;;1.00;0.80;;;22.40;54.70;;;;;;5051070;28;20044;-61
2022/07/14 01:58:04;;;;;;;0.70;0.65;;;22.40;54.60;;;;;;5054880;28;20037;-62
2022/07/14 02:00:30;;;;;;;3.60;0.82;;;22.30;54.30;;;;;;5051436;28;20051;-60
2022/07/14 02:02:55;;;;;;;1.42;0.57;;;22.20;54.40;;;;;;5052573;28;20044;-63
2022/07/14 02:05:21;;;;;;;1.95;0.73;;;22.20;54.60;;;;;;5053029;28;20097;-61
2022/07/14 02:07:47;;;;;;;1.73;0.90;;;22.30;54.70;;;;;;5053111;28;20550;-59
2022/07/14 02:12:57;;;;;;;5.13;0.83;;;22.30;55.00;;;;;;5049774;28;20047;-62
2022/07/14 02:15:23;;;;;;;1.25;0.82;;;22.30;55.00;;;;;;5053203;28;20029;-61
2022/07/14 02:17:49;;;;;;;2.30;0.77;;;22.20;55.10;;;;;;5053083;28;20555;-63
2022/07/14 02:20:14;;;;;;;1.60;0.80;;;22.20;55.20;;;;;;5052026;28;20124;-63
2022/07/14 02:22:40;;;;;;;2.63;0.57;;;22.10;55.10;;;;;;5052836;28;20033;-63
2022/07/14 02:25:06;;;;;;;0.60;0.60;;;22.10;55.30;;;;;;5053006;28;20033;-63
2022/07/14 02:27:32;;;;;;;2.47;0.70;;;22.10;55.30;;;;;;5050692;28;20071;-63
2022/07/14 02:29:57;;;;;;;0.70;0.68;;;22.10;55.30;;;;;;5051288;28;20037;-62
2022/07/14 02:32:24;;;;;;;1.42;0.70;;;22.10;55.20;;;;;;5049623;28;20044;-63
2022/07/14 02:34:50;;;;;;;1.05;0.70;;;22.10;55.30;;;;;;5051741;28;20062;-62
2022/07/14 02:37:15;;;;;;;2.20;0.80;;;22.10;55.50;;;;;;5051104;28;20094;-60
2022/07/14 02:39:41;;;;;;;4.57;0.98;;;22.10;55.60;;;;;;5052625;28;20447;-62
2022/07/14 02:42:06;;;;;;;2.45;0.80;;;22.00;55.60;;;;;;5050849;28;20039;-63
2022/07/14 02:44:32;;;;;;;2.50;0.70;;;22.10;55.90;;;;;;5050603;28;20694;-59
2022/07/14 02:46:57;;;;;;;0.90;0.80;;;22.00;55.80;;;;;;5050582;28;20040;-64
2022/07/14 02:49:23;;;;;;;1.02;0.80;;;22.00;55.70;;;;;;5052708;28;20121;-62
2022/07/14 02:51:49;;;;;;;1.00;0.70;;;22.00;55.80;;;;;;5049160;28;20085;-62
2022/07/14 02:54:14;;;;;;;1.13;0.70;;;22.00;55.90;;;;;;5052197;28;20515;-62
2022/07/14 02:56:40;;;;;;;0.90;0.68;;;22.00;55.70;;;;;;5049144;28;20155;-62
2022/07/14 02:59:06;;;;;;;6.53;0.70;;;21.90;55.80;;;;;;5052982;28;20031;-62
2022/07/14 03:01:32;;;;;;;1.05;0.70;;;21.90;55.70;;;;;;5054986;28;20036;-63
2022/07/14 03:03:57;;;;;;;1.50;0.93;;;22.00;55.70;;;;;;5054156;28;20079;-64
2022/07/14 03:06:23;;;;;;;0.68;0.65;;;21.90;55.60;;;;;;5053572;28;20052;-64
2022/07/14 03:08:49;;;;;;;1.02;0.80;;;21.80;55.70;;;;;;5058485;28;20113;-62
2022/07/14 03:11:14;;;;;;;5.95;0.75;;;21.80;55.90;;;;;;5055446;28;20461;-62
2022/07/14 03:13:40;;;;;;;2.47;0.88;;;21.70;56.00;;;;;;5056014;28;20032;-63
2022/07/14 03:16:08;;;;;;;1.58;0.90;;;21.60;56.20;;;;;;5058611;28;20574;-61
2022/07/14 03:18:34;;;;;;;2.88;0.90;;;21.60;56.30;;;;;;5058730;28;20063;-63
2022/07/14 03:20:59;;;;;;;1.20;1.10;;;21.50;56.40;;;;;;5058384;28;20468;-63
2022/07/14 03:23:25;;;;;;;1.23;0.93;;;21.40;56.50;;;;;;5057012;28;20049;-63
2022/07/14 03:25:51;;;;;;;1.15;0.98;;;21.40;56.70;;;;;;5057995;28;20033;-62
2022/07/14 03:28:17;;;;;;;2.15;1.10;;;21.30;56.90;;;;;;5059585;28;20064;-63
2022/07/14 03:30:43;;;;;;;0.80;0.80;;;21.20;56.70;;;;;;5057697;28;20488;-63
2022/07/14 03:33:09;;;;;;;2.30;0.90;;;21.20;56.90;;;;;;5058760;28;20040;-63
2022/07/14 03:35:41;;;;;;;3.15;1.40;;;21.10;57.00;;;;;;5059552;28;20043;-61
2022/07/14 03:38:07;;;;;;;3.15;1.10;;;21.00;57.10;;;;;;5058730;28;20029;-63
2022/07/14 03:40:33;;;;;;;1.48;1.13;;;21.00;57.10;;;;;;5058341;28;20115;-61
2022/07/14 03:43:00;;;;;;;2.80;1.10;;;20.90;57.20;;;;;;5060456;28;20556;-61
2022/07/14 03:45:26;;;;;;;1.67;1.20;;;20.90;58.00;;;;;;5059618;28;20123;-62
2022/07/14 03:47:51;;;;;;;2.83;1.20;;;20.80;57.40;;;;;;5058197;28;20116;-62
2022/07/14 03:50:17;;;;;;;2.10;1.20;;;20.80;57.60;;;;;;5058782;28;20534;-60
2022/07/14 03:52:43;;;;;;;1.45;1.15;;;20.70;57.80;;;;;;5057310;28;20078;-62
2022/07/14 03:55:08;;;;;;;1.63;1.10;;;20.60;57.90;;;;;;5058080;28;20036;-63
2022/07/14 03:57:34;;;;;;;3.63;1.33;;;20.60;58.00;;;;;;5056662;28;20571;-64
2022/07/14 04:00:00;;;;;;;1.60;1.30;;;20.50;58.00;;;;;;5059681;28;20029;-60
2022/07/14 04:02:26;;;;;;;2.67;1.30;;;20.40;58.20;;;;;;5058165;28;20029;-62
2022/07/14 04:04:51;;;;;;;6.55;1.10;;;20.40;58.30;;;;;;5059359;28;20377;-61
2022/07/14 04:07:17;;;;;;;3.78;1.10;;;20.30;58.70;;;;;;5059018;28;20036;-62
2022/07/14 04:09:42;;;;;;;3.75;1.23;;;20.30;58.80;;;;;;5058864;28;20036;-63
2022/07/14 04:12:08;;;;;;;3.10;1.13;;;20.20;59.00;;;;;;5056827;28;20049;-62
2022/07/14 04:14:34;;;;;;;2.33;1.17;;;20.20;59.20;;;;;;5057016;28;20576;-63
2022/07/14 04:16:59;;;;;;;3.83;1.27;;;20.20;59.30;;;;;;5055250;28;20046;-64
2022/07/14 04:19:25;;;;;;;1.50;0.95;;;20.20;59.60;;;;;;5055317;28;20041;-63
2022/07/14 04:21:50;;;;;;;2.05;1.42;;;20.10;59.60;;;;;;5053274;28;20039;-63
2022/07/14 04:24:17;;;;;;;2.25;1.10;;;20.10;59.90;;;;;;5055065;28;20035;-62
2022/07/14 04:26:42;;;;;;;4.63;1.10;;;20.10;60.20;;;;;;5052625;28;20531;-64
2022/07/14 04:29:09;;;;;;;1.48;0.93;;;20.10;60.40;;;;;;5052407;28;20042;-62
2022/07/14 04:31:35;;;;;;;3.83;1.20;;;20.10;60.80;;;;;;5054357;28;20056;-63
2022/07/14 04:34:01;;;;;;;2.03;1.48;;;20.10;61.00;;;;;;5056554;28;20656;-63
2022/07/14 04:36:26;;;;;;;26.50;10.45;;;20.00;61.10;;;;;;5057137;28;20556;-63
2022/07/14 04:38:52;;;;;;;40.10;14.57;;;20.00;61.30;;;;;;5055338;28;20040;-62
2022/07/14 04:41:18;;;;;;;54.90;21.13;;;20.00;61.50;;;;;;5058074;28;20068;-62
2022/07/14 04:43:43;;;;;;;64.05;25.38;;;20.00;61.50;;;;;;5053902;28;20120;-61
2022/07/14 04:46:09;;;;;;;46.05;19.45;;;20.00;61.60;;;;;;5053845;28;20040;-61
2022/07/14 04:52:01;;;;;;;46.38;19.63;;;20.10;61.50;;;;;;5054968;28;20075;-63
2022/07/14 04:52:03;;;;;;;38.60;16.88;;;20.10;61.90;;;;;;5056572;28;20029;-63
2022/07/14 04:54:09;;;;;;;14.75;6.72;;;20.20;62.20;;;;;;5048156;28;20028;-61
2022/07/14 04:56:35;;;;;;;9.85;5.20;;;20.20;61.30;;;;;;5052508;28;20103;-62
2022/07/14 04:59:00;;;;;;;8.07;3.90;;;20.20;61.80;;;;;;5053675;28;20128;-64
2022/07/14 05:01:26;;;;;;;7.10;3.90;;;20.30;62.00;;;;;;5055313;28;20045;-63
2022/07/14 05:03:52;;;;;;;4.18;2.63;;;20.30;62.00;;;;;;5057444;28;20043;-62
2022/07/14 05:06:18;;;;;;;2.08;1.88;;;20.40;62.20;;;;;;5054697;28;20040;-64
2022/07/14 05:08:44;;;;;;;3.03;1.88;;;20.40;62.60;;;;;;5055256;28;20064;-62
2022/07/14 05:11:09;;;;;;;2.17;1.75;;;20.50;62.50;;;;;;5053548;28;20057;-61
2022/07/14 05:13:35;;;;;;;3.55;1.77;;;20.60;62.00;;;;;;5052952;28;20465;-63
2022/07/14 05:16:00;;;;;;;3.72;2.20;;;20.70;62.20;;;;;;5055554;28;20033;-63
2022/07/14 05:18:26;;;;;;;3.88;1.92;;;20.80;61.70;;;;;;5053519;28;20033;-62
2022/07/14 05:20:52;;;;;;;3.30;1.60;;;20.90;61.30;;;;;;5056525;28;20452;-62
2022/07/14 05:23:18;;;;;;;7.80;1.73;;;21.00;61.70;;;;;;5054637;28;20040;-60
2022/07/14 05:25:44;;;;;;;10.15;1.77;;;21.10;61.60;;;;;;5054677;28;20036;-63
2022/07/14 05:28:09;;;;;;;3.88;1.38;;;21.20;61.50;;;;;;5055268;28;20102;-62
2022/07/14 05:30:35;;;;;;;6.50;1.40;;;21.30;61.70;;;;;;5054028;28;20111;-62
2022/07/14 05:33:01;;;;;;;3.08;1.00;;;21.40;60.30;;;;;;5053313;28;20040;-63
2022/07/14 05:35:27;;;;;;;1.80;1.00;;;21.50;60.30;;;;;;5053174;28;20032;-63
2022/07/14 05:37:52;;;;;;;1.58;0.82;;;21.50;59.30;;;;;;5053831;28;20622;-64
2022/07/14 05:40:18;;;;;;;4.25;1.10;;;21.60;59.70;;;;;;5055208;28;20024;-62
2022/07/14 05:42:43;;;;;;;2.88;1.10;;;21.70;59.20;;;;;;5054724;28;20428;-61
2022/07/14 05:45:10;;;;;;;1.63;1.27;;;21.70;58.60;;;;;;5053203;28;20468;-63
2022/07/14 05:47:35;;;;;;;4.45;1.13;;;21.80;58.40;;;;;;5055320;28;20237;-60
2022/07/14 05:50:02;;;;;;;2.00;1.20;;;21.80;58.40;;;;;;5054320;28;20044;-63
2022/07/14 05:52:30;;;;;;;1.20;1.10;;;21.90;58.40;;;;;;5051849;28;20051;-61
2022/07/14 05:54:58;;;;;;;3.45;1.30;;;21.90;59.10;;;;;;5053698;28;20683;-63
2022/07/14 05:57:24;;;;;;;2.95;1.10;;;22.00;58.30;;;;;;5055710;28;20077;-63
2022/07/14 05:59:49;;;;;;;5.53;1.02;;;22.10;58.30;;;;;;5052713;28;20032;-61
2022/07/14 06:02:15;;;;;;;3.97;1.00;;;22.10;58.10;;;;;;5055875;28;20162;-63
2022/07/14 06:04:41;;;;;;;3.55;1.10;;;22.20;58.20;;;;;;5052679;28;20029;-63
2022/07/14 06:07:07;;;;;;;3.45;1.20;;;22.20;58.30;;;;;;5054034;28;20047;-63
2022/07/14 06:09:37;;;;;;;0.98;0.80;;;22.30;58.20;;;;;;5054487;28;20037;-60
2022/07/14 06:12:07;;;;;;;3.55;1.30;;;22.40;58.10;;;;;;5052775;28;20044;-62
2022/07/14 06:14:32;;;;;;;1.83;1.05;;;22.40;58.00;;;;;;5053840;28;20032;-63
2022/07/14 06:16:58;;;;;;;3.08;1.20;;;22.50;57.80;;;;;;5051251;28;20404;-64
2022/07/14 06:19:24;;;;;;;2.40;1.20;;;22.60;57.90;;;;;;5053972;28;20029;-62
2022/07/14 06:21:49;;;;;;;1.27;1.00;;;22.60;57.80;;;;;;5052346;28;20527;-62
2022/07/14 06:24:15;;;;;;;1.48;1.10;;;22.60;58.20;;;;;;5055928;28;20032;-60
2022/07/14 06:26:41;;;;;;;2.58;0.90;;;22.70;58.80;;;;;;5052595;28;20033;-62
2022/07/14 06:29:07;;;;;;;2.05;1.02;;;22.70;58.90;;;;;;5054917;28;20053;-64
2022/07/14 06:31:34;;;;;;;4.63;0.93;;;22.80;59.10;;;;;;5052844;28;20464;-63
2022/07/14 06:34:01;;;;;;;2.80;1.27;;;22.90;59.00;;;;;;5057961;28;20108;-63
2022/07/14 06:36:26;;;;;;;1.95;1.00;;;22.90;58.80;;;;;;5060519;28;20133;-64
2022/07/14 06:38:52;;;;;;;2.20;1.02;;;23.00;58.40;;;;;;5060174;28;20112;-64
2022/07/14 06:41:21;;;;;;;2.33;0.95;;;23.10;58.70;;;;;;5060169;28;20036;-62
2022/07/14 06:43:47;;;;;;;5.07;1.05;;;23.20;58.50;;;;;;5055433;28;20086;-63
2022/07/14 06:46:16;;;;;;;6.30;1.50;;;23.30;58.00;;;;;;5056702;28;20049;-64
2022/07/14 06:48:43;;;;;;;5.65;1.38;;;23.30;57.90;;;;;;5054541;28;20096;-62
2022/07/14 06:51:09;;;;;;;4.13;1.40;;;23.50;57.60;;;;;;5056780;28;20052;-63
2022/07/14 06:53:35;;;;;;;1.30;1.00;;;23.40;57.30;;;;;;5058283;28;20171;-63
2022/07/14 06:56:00;;;;;;;4.28;1.10;;;23.70;57.30;;;;;;5057242;28;20087;-63
2022/07/14 06:58:26;;;;;;;7.32;1.65;;;23.80;57.30;;;;;;5060895;28;20132;-62
2022/07/14 07:00:51;;;;;;;3.90;1.23;;;23.90;57.30;;;;;;5055585;28;20043;-62
2022/07/14 07:03:17;;;;;;;3.83;1.08;;;24.00;57.20;;;;;;5058232;28;21565;-63
2022/07/14 07:08:28;;;;;;;6.13;1.13;;;24.20;56.90;;;;;;5056158;28;20503;-64
2022/07/14 07:10:58;;;;;;;3.90;1.00;;;24.40;56.70;;;;;;5053622;28;20041;-61
2022/07/14 07:13:26;;;;;;;5.85;1.13;;;24.50;56.10;;;;;;5057428;28;20044;-63
2022/07/14 07:15:53;;;;;;;8.73;1.27;;;24.60;56.00;;;;;;5057252;28;20116;-60
2022/07/14 07:18:18;;;;;;;3.25;1.10;;;24.70;55.90;;;;;;5056571;28;20083;-62
2022/07/14 07:20:44;;;;;;;3.10;1.10;;;24.90;55.40;;;;;;5057480;28;20120;-63
2022/07/14 07:23:10;;;;;;;2.95;1.10;;;25.00;54.80;;;;;;5054004;28;20550;-62
2022/07/14 07:25:36;;;;;;;4.28;1.20;;;25.10;54.10;;;;;;5057807;28;20078;-63
2022/07/14 07:28:02;;;;;;;4.95;1.00;;;25.20;54.00;;;;;;5056565;28;20055;-64
2022/07/14 07:30:28;;;;;;;2.55;0.95;;;25.30;53.40;;;;;;5057199;28;20569;-62
2022/07/14 07:32:54;;;;;;;3.33;1.10;;;25.50;53.40;;;;;;5055821;28;20096;-63
2022/07/14 07:35:20;;;;;;;2.15;0.90;;;25.60;53.20;;;;;;5056419;28;20043;-64
2022/07/14 07:37:46;;;;;;;2.22;1.13;;;25.70;52.50;;;;;;5056699;28;20033;-63
2022/07/14 07:40:12;;;;;;;1.38;0.93;;;25.80;53.00;;;;;;5057040;28;20048;-61
2022/07/14 07:42:37;;;;;;;4.35;1.42;;;26.00;52.30;;;;;;5054470;28;20206;-62
2022/07/14 07:45:03;;;;;;;3.65;0.82;;;26.10;52.10;;;;;;5057209;28;20035;-63
2022/07/14 07:47:29;;;;;;;2.33;0.90;;;26.20;51.90;;;;;;5058709;28;20047;-59
2022/07/14 07:49:55;;;;;;;7.00;1.00;;;26.40;51.80;;;;;;5056139;28;20045;-62
2022/07/14 07:52:21;;;;;;;8.57;1.10;;;26.50;51.60;;;;;;5056521;28;20037;-64
2022/07/14 07:54:47;;;;;;;3.55;0.90;;;26.60;51.40;;;;;;5057083;28;20037;-59
2022/07/14 07:57:13;;;;;;;4.75;0.82;;;26.70;50.80;;;;;;5055138;28;20040;-62
2022/07/14 07:59:39;;;;;;;4.75;1.33;;;26.90;50.50;;;;;;5056028;28;20037;-64
2022/07/14 08:02:05;;;;;;;0.75;0.63;;;27.00;50.50;;;;;;5052205;28;20049;-63
2022/07/14 08:04:32;;;;;;;5.05;0.75;;;27.10;49.80;;;;;;5057278;28;20503;-63
2022/07/14 08:06:58;;;;;;;3.83;0.90;;;27.10;50.40;;;;;;5057336;28;20195;-61
2022/07/14 08:09:23;;;;;;;2.78;0.65;;;27.30;49.90;;;;;;5055744;28;20491;-61
2022/07/14 08:11:49;;;;;;;1.48;0.70;;;27.40;50.10;;;;;;5052875;28;20044;-63
2022/07/14 08:16:59;;;;;;;1.52;0.70;;;27.50;49.80;;;;;;5056844;28;20094;-61
2022/07/14 08:19:25;;;;;;;4.18;0.80;;;27.60;49.50;;;;;;5055420;28;20442;-63
2022/07/14 08:21:51;;;;;;;4.20;1.08;;;27.70;48.80;;;;;;5057280;28;20450;-62
2022/07/14 08:24:19;;;;;;;1.90;0.98;;;27.80;48.70;;;;;;5056997;28;20043;-63
2022/07/14 08:26:45;;;;;;;1.23;0.70;;;27.90;48.60;;;;;;5055510;28;20606;-64
2022/07/14 08:29:11;;;;;;;2.00;0.50;;;28.00;48.30;;;;;;5054238;28;20064;-63
2022/07/14 08:31:36;;;;;;;0.82;0.68;;;28.20;47.80;;;;;;5056465;28;20475;-63
2022/07/14 08:34:03;;;;;;;1.55;0.60;;;28.30;47.10;;;;;;5056079;28;20044;-63
2022/07/14 08:36:29;;;;;;;17.40;1.15;;;28.40;47.20;;;;;;5055792;28;20131;-64
2022/07/14 08:38:55;;;;;;;0.65;0.50;;;28.50;46.40;;;;;;5054974;28;20057;-63
2022/07/14 08:41:21;;;;;;;1.63;0.70;;;28.70;45.60;;;;;;5056171;28;20116;-61
2022/07/14 08:43:48;;;;;;;2.15;0.70;;;28.80;45.20;;;;;;5057392;28;20056;-61
2022/07/14 08:46:15;;;;;;;2.55;0.65;;;28.90;44.90;;;;;;5054766;28;20119;-63
2022/07/14 08:48:40;;;;;;;6.70;0.93;;;29.00;44.70;;;;;;5057121;28;20041;-63
2022/07/14 08:51:08;;;;;;;0.93;0.47;;;29.10;44.20;;;;;;5054726;28;20033;-63
2022/07/14 08:53:35;;;;;;;1.27;0.88;;;29.20;44.10;;;;;;5055492;28;20051;-63
2022/07/14 08:56:01;;;;;;;9.52;0.70;;;29.40;44.00;;;;;;5057567;28;20033;-63
2022/07/14 08:58:26;;;;;;;4.88;1.00;;;29.50;44.70;;;;;;5056454;28;20047;-62
2022/07/14 09:00:52;;;;;;;2.30;0.70;;;29.60;44.40;;;;;;5056636;28;20045;-62
2022/07/14 09:03:19;;;;;;;3.00;1.23;;;29.70;44.60;;;;;;5056542;28;20044;-63
2022/07/14 09:05:45;;;;;;;1.42;0.80;;;29.80;44.20;;;;;;5058260;28;20520;-63
2022/07/14 09:08:14;;;;;;;3.35;0.77;;;30.00;44.10;;;;;;5059428;28;20033;-62
2022/07/14 09:10:42;;;;;;;3.10;1.00;;;30.10;44.00;;;;;;5055223;28;20033;-63
2022/07/14 09:13:13;;;;;;;2.60;0.90;;;30.20;44.40;;;;;;5057818;28;20118;-62
2022/07/14 09:15:45;;;;;;;1.92;0.80;;;30.30;44.20;;;;;;5058885;28;20059;-62
2022/07/14 09:18:26;;;;;;;2.03;0.60;;;30.40;43.10;;;;;;5057497;28;20032;-63
2022/07/14 09:20:53;;;;;;;0.95;0.50;;;30.60;42.70;;;;;;5055794;28;20060;-61
2022/07/14 09:23:33;;;;;;;0.93;0.60;;;30.60;42.90;;;;;;5054393;28;20031;-63
2022/07/14 09:26:47;;;;;;;5.50;0.68;;;30.70;40.00;;;;;;5054661;28;20036;-63
2022/07/14 09:29:26;;;;;;;2.70;0.77;;;30.90;41.20;;;;;;5013979;28;20109;-64
2022/07/14 09:31:52;;;;;;;1.83;0.60;;;30.90;40.60;;;;;;5055850;28;20017;-64
2022/07/14 09:34:27;;;;;;;2.13;0.50;;;31.10;40.80;;;;;;5056060;28;20079;-62
2022/07/14 09:36:52;;;;;;;2.72;0.63;;;31.20;38.60;;;;;;5051995;28;20591;-63
2022/07/14 09:39:18;;;;;;;2.10;0.40;;;31.20;38.30;;;;;;5055025;28;20405;-62
2022/07/14 09:41:52;;;;;;;1.08;0.40;;;31.30;38.70;;;;;;5056481;28;20048;-62
2022/07/14 09:44:18;;;;;;;0.50;0.50;;;31.40;37.20;;;;;;5057892;28;20119;-61
2022/07/14 09:46:44;;;;;;;0.93;0.60;;;31.50;37.70;;;;;;5054333;28;20066;-61
2022/07/14 09:49:10;;;;;;;0.52;0.40;;;31.50;37.60;;;;;;5053008;28;20511;-61
2022/07/14 09:51:57;;;;;;;0.35;0.35;;;31.50;37.00;;;;;;5053293;28;20047;-61
2022/07/14 09:54:40;;;;;;;2.40;0.45;;;31.70;36.40;;;;;;5057034;28;20043;-61
2022/07/14 09:57:26;;;;;;;1.65;0.40;;;31.70;35.60;;;;;;5056005;28;20037;-62
2022/07/14 10:00:06;;;;;;;4.30;0.70;;;31.80;36.00;;;;;;5055824;28;20561;-63
2022/07/14 10:02:31;;;;;;;1.60;0.47;;;31.90;35.60;;;;;;5054556;28;20381;-63
2022/07/14 10:05:01;;;;;;;2.95;0.57;;;31.90;35.10;;;;;;5055168;28;20052;-64
2022/07/14 10:07:32;;;;;;;4.28;0.60;;;32.00;35.00;;;;;;5056302;28;20053;-63
2022/07/14 10:10:08;;;;;;;1.48;0.40;;;32.10;34.40;;;;;;5055012;28;20044;-64
2022/07/14 10:12:36;;;;;;;0.73;0.40;;;32.20;33.00;;;;;;5053039;28;20037;-62
2022/07/14 10:15:04;;;;;;;1.58;0.43;;;32.20;33.70;;;;;;5054431;28;20374;-63
2022/07/14 10:17:31;;;;;;;0.60;0.47;;;32.30;33.40;;;;;;5056114;28;20033;-63
2022/07/14 10:19:57;;;;;;;1.85;0.50;;;32.30;33.20;;;;;;5056432;28;20047;-62
2022/07/14 10:22:23;;;;;;;0.50;0.50;;;32.40;33.30;;;;;;5053764;28;20040;-62
2022/07/14 10:24:50;;;;;;;3.28;0.40;;;32.40;33.00;;;;;;5054061;28;20484;-63
2022/07/14 10:27:18;;;;;;;0.73;0.40;;;32.50;33.30;;;;;;5054985;28;20408;-61
2022/07/14 10:29:50;;;;;;;1.67;0.40;;;32.60;33.30;;;;;;5055344;28;20048;-63
2022/07/14 10:32:53;;;;;;;2.25;0.40;;;32.70;32.20;;;;;;5053143;28;20033;-64
2022/07/14 10:35:43;;;;;;;0.30;0.30;;;32.70;31.10;;;;;;5054767;28;20045;-63
2022/07/14 10:38:22;;;;;;;1.15;0.38;;;32.80;30.50;;;;;;5052741;28;20123;-65
2022/07/14 10:40:51;;;;;;;1.35;0.50;;;32.90;31.00;;;;;;5053193;28;20041;-64
2022/07/14 10:43:20;;;;;;;1.73;0.50;;;32.90;31.60;;;;;;5055048;28;20159;-64
2022/07/14 10:45:54;;;;;;;0.73;0.40;;;33.00;30.60;;;;;;5056790;28;20028;-66
2022/07/14 10:48:36;;;;;;;0.30;0.30;;;33.00;29.80;;;;;;5054700;28;20055;-63
2022/07/14 10:51:14;;;;;;;0.32;0.32;;;33.00;29.90;;;;;;5055803;28;20453;-64
2022/07/14 10:54:25;;;;;;;0.52;0.40;;;33.10;30.00;;;;;;5054893;28;20029;-62
2022/07/14 10:57:12;;;;;;;1.90;0.60;;;33.10;31.20;;;;;;5011819;28;20026;-63
2022/07/14 10:59:39;;;;;;;5.70;0.50;;;33.20;30.10;;;;;;5014219;28;20421;-64
2022/07/14 11:02:13;;;;;;;2.22;0.70;;;33.20;31.20;;;;;;5040359;28;20039;-63
2022/07/14 11:04:57;;;;;;;2.53;0.45;;;33.30;30.20;;;;;;5052907;28;20112;-63
2022/07/14 11:07:44;;;;;;;4.47;0.40;;;33.40;29.90;;;;;;5057223;28;20036;-63
2022/07/14 11:10:19;;;;;;;2.15;0.50;;;33.40;29.50;;;;;;5053778;28;20048;-63
2022/07/14 11:13:16;;;;;;;1.40;0.40;;;33.40;29.80;;;;;;5050253;28;20052;-61
2022/07/14 11:15:45;;;;;;;0.77;0.43;;;33.40;29.30;;;;;;5043258;28;20037;-62
2022/07/14 11:18:24;;;;;;;3.72;0.60;;;33.40;29.50;;;;;;5053983;28;20033;-62
2022/07/14 11:20:51;;;;;;;2.88;0.60;;;33.40;29.00;;;;;;5056196;28;20029;-64
2022/07/14 11:23:23;;;;;;;1.60;0.45;;;33.40;29.80;;;;;;5058921;28;20213;-64
2022/07/14 11:25:50;;;;;;;1.45;0.50;;;33.30;30.00;;;;;;5058605;28;20047;-63
2022/07/14 11:28:32;;;;;;;3.47;0.52;;;33.40;30.10;;;;;;5058085;28;20033;-66
2022/07/14 11:31:10;;;;;;;1.10;0.50;;;33.40;29.90;;;;;;5059012;28;20029;-63
2022/07/14 11:33:36;;;;;;;1.75;0.57;;;33.50;29.90;;;;;;5058572;28;20048;-64
2022/07/14 11:36:19;;;;;;;2.25;0.38;;;33.60;30.00;;;;;;5058222;28;20500;-64
2022/07/14 11:38:45;;;;;;;0.50;0.50;;;33.60;29.40;;;;;;5057083;28;20049;-63
2022/07/14 11:41:14;;;;;;;0.40;0.40;;;33.70;29.90;;;;;;5055775;28;20091;-65
2022/07/14 11:43:45;;;;;;;2.00;0.50;;;33.70;30.20;;;;;;5057060;28;20036;-63
2022/07/14 11:46:16;;;;;;;0.52;0.43;;;33.70;29.80;;;;;;5058519;28;20466;-62
2022/07/14 11:48:45;;;;;;;2.65;0.52;;;33.80;29.50;;;;;;5058596;28;20549;-63
2022/07/14 11:51:16;;;;;;;2.25;0.65;;;33.80;30.00;;;;;;5057876;28;20037;-63
2022/07/14 11:53:42;;;;;;;2.38;0.68;;;33.80;30.00;;;;;;5058654;28;20599;-65
2022/07/14 11:56:09;;;;;;;2.75;0.65;;;33.90;30.50;;;;;;5054835;28;20055;-63
2022/07/14 11:58:37;;;;;;;2.05;0.60;;;33.90;30.00;;;;;;5056743;28;20033;-63
2022/07/14 12:01:03;;;;;;;1.58;0.50;;;33.90;29.90;;;;;;5057276;28;20110;-64
2022/07/14 12:03:29;;;;;;;6.45;0.68;;;34.00;30.30;;;;;;5058335;28;20520;-63
2022/07/14 12:05:58;;;;;;;5.63;0.70;;;34.00;30.00;;;;;;5057428;28;20107;-64
2022/07/14 12:08:31;;;;;;;2.65;0.63;;;34.10;30.30;;;;;;5058511;28;20025;-63
2022/07/14 12:11:02;;;;;;;7.60;0.83;;;34.10;30.90;;;;;;5056768;28;20036;-63
2022/07/14 12:13:28;;;;;;;1.80;0.60;;;34.20;30.70;;;;;;5055788;28;20033;-63
2022/07/14 12:16:03;;;;;;;2.40;0.70;;;34.20;30.00;;;;;;5056734;28;20060;-61
2022/07/14 12:18:31;;;;;;;0.98;0.80;;;34.30;30.10;;;;;;5054723;28;20040;-63
2022/07/14 12:20:59;;;;;;;0.90;0.60;;;34.30;30.00;;;;;;5056747;28;20512;-66
2022/07/14 12:23:25;;;;;;;86.32;4.32;;;34.30;30.00;;;;;;5058336;28;20033;-62
2022/07/14 12:25:51;;;;;;;0.60;0.60;;;34.30;29.70;;;;;;5056330;28;20043;-62
2022/07/14 12:28:19;;;;;;;3.05;0.73;;;34.30;29.60;;;;;;5056568;28;20247;-63
2022/07/14 12:30:57;;;;;;;2.72;0.88;;;34.30;29.90;;;;;;5057598;28;20040;-64
2022/07/14 12:33:28;;;;;;;4.07;0.73;;;34.30;29.40;;;;;;5056967;28;20074;-65
2022/07/14 12:35:56;;;;;;;2.38;0.70;;;34.30;29.60;;;;;;5057928;28;20501;-64
2022/07/14 12:38:23;;;;;;;2.00;0.70;;;34.30;29.60;;;;;;5055916;28;20059;-63
2022/07/14 12:40:58;;;;;;;2.75;0.80;;;34.30;29.60;;;;;;5056468;28;20151;-63
2022/07/14 12:43:24;;;;;;;;;;;34.30;29.70;;;;;;5058205;28;20036;-63
2022/07/14 12:46:10;;;;;;;1.58;0.68;;;34.40;30.30;;;;;;5056642;28;19939;-67
2022/07/14 12:48:55;;;;;;;13.48;0.95;;;34.40;29.60;;;;;;5054582;28;20055;-63
2022/07/14 12:51:29;;;;;;;1.38;0.70;;;34.40;30.10;;;;;;5056582;28;20039;-62
2022/07/14 12:54:10;;;;;;;1.38;0.80;;;34.40;30.50;;;;;;5055148;28;20044;-62
2022/07/14 12:56:45;;;;;;;8.90;0.95;;;34.40;30.00;;;;;;5056297;28;20041;-62
2022/07/14 12:59:22;;;;;;;2.53;0.80;;;34.40;29.10;;;;;;5057147;28;20450;-64